Tiempo atmosférico en la estación meteorológica de Estepona, Málaga (15 m.)



Fecha
DESCASC
Temp. máxima en grados centígrados (hora)
DESCASC
Temp. mínima en grados centígrados (hora)
DESCASC
Temp. media en grados centígrados
DESCASC
Racha de viento máxima en m/sg (hora)
DESCASC
Velocidad máxima media en intervalos de 10 minutos(hora)
DESCASC
Precipitaciones diarias en mm
DESCASC
Precipitaciones de 00:00 a 06:00 en mm
DESCASC
Precipitaciones de 06:00 a 12:00 en mm
DESCASC
Precipitaciones de 12:00 a 18:00 en mm
DESCASC
Precipitaciones de 18:00 a 24:00 en mm
DESCASC
08-12-2019 20.4 (15:50) 10.8 (08:20) 15.6 10.56 (15:20) 6.11 (15:20) -- -- -- -- --
07-12-2019 19.3 (13:50) 12.6 (23:59) 15.9 6.11 (00:50) 2.78 (00:10) -- -- -- -- --
06-12-2019 18.7 (14:10) 14 (02:40) 16.4 8.33 (13:30) 4.72 (11:50) -- -- -- -- --
05-12-2019 16.1 (11:20) 10.5 (00:00) 13.3 10.56 (17:10) 6.11 (17:10) -- -- -- -- --
04-12-2019 19.4 (14:00) 12.3 (00:00) 15.8 11.94 (14:30) 6.67 (16:10) -- -- -- -- --
03-12-2019 16.2 (14:50) 12.2 (00:00) 14.2 10.56 (01:20) 6.11 (01:20) -- -- -- -- --
02-12-2019 14.4 (13:00) 11.5 (00:00) 12.9 8.33 (13:40) 3.89 (13:20) -- -- -- -- --
01-12-2019 19.9 (13:40) 12.3 (00:00) 16.1 13.06 (12:20) 7.5 (12:20) -- -- -- -- --
30-11-2019 18.3 (19:20) 11.6 (00:00) 14.9 8.89 (20:10) 5.28 (20:10) -- -- -- -- --
29-11-2019 19.4 (14:20) 11.2 (00:00) 15.3 3.89 (14:00) 2.22 (13:30) -- -- -- -- --
28-11-2019 18.8 (11:40) 12.3 (00:00) 15.5 6.11 (00:10) 3.61 (00:10) -- -- -- -- --
27-11-2019 21.8 (13:40) 15.7 (00:00) 18.7 12.22 (11:50) 6.39 (00:10) -- -- -- -- --
26-11-2019 23 (13:00) 14.2 (00:00) 18.6 13.33 (16:00) 6.94 (15:50) -- -- -- -- --
25-11-2019 21.2 (14:20) 12.3 (00:00) 16.8 13.33 (11:30) 8.33 (08:50) -- -- -- -- --
24-11-2019 19.3 (14:00) 10 (00:00) 14.6 11.67 (13:10) 5.56 (15:50) -- -- -- -- --
23-11-2019 18.1 (14:40) 13.6 (00:00) 15.9 16.39 (08:50) 7.22 (01:30) -- -- -- -- --
22-11-2019 19.4 (18:00) 14.5 (00:00) 16.9 20 (20:40) 9.17 (20:20) -- -- -- -- --
21-11-2019 15.2 (15:10) 11.6 (00:00) 13.4 3.89 (19:20) 2.22 (11:10) -- -- -- -- --
20-11-2019 13.4 (15:40) 8.9 (00:00) 11.1 5 (14:20) 2.5 (14:20) -- -- -- -- --
19-11-2019 -- (--) -- (--) -- -- (--) -- (--) -- -- -- -- --
18-11-2019 -- (--) -- (--) -- -- (--) -- (--) -- -- -- -- --
17-11-2019 -- (--) -- (--) -- -- (--) -- (--) -- -- -- -- --
16-11-2019 -- (--) -- (--) -- -- (--) -- (--) -- -- -- -- --
15-11-2019 -- (--) -- (--) -- -- (--) -- (--) -- -- -- -- --
14-11-2019 -- (--) -- (--) -- -- (--) -- (--) -- -- -- -- --
13-11-2019 -- (--) -- (--) -- -- (--) -- (--) -- -- -- -- --
12-11-2019 -- (--) -- (--) -- -- (--) -- (--) -- -- -- -- --
11-11-2019 -- (--) -- (--) -- -- (--) -- (--) -- -- -- -- --
10-11-2019 -- (--) -- (--) -- -- (--) -- (--) -- -- -- -- --

Gráficas

Temp. máximas Temp. mínimas Temp. medias Precipitaciones Rachas de viento máximas Velocidades máximas media en intervalos de 10 minutos

Datos horarios

Fecha y hora oficial Temperatura (ºC) Velocidad del viento (km/h) Dirección del viento Racha (km/h) Dirección de racha Precipitación (mm) Presión (hPa) Tendencia (hPa) Humedad (%)
2019-12-09 23:00:00 14.8 3 Noroeste 7 Noroeste -- 1026.3 0.2 73
2019-12-09 22:00:00 15.2 3 Noroeste 6 Norte -- 1026.5 0.9 71
2019-12-09 21:00:00 14.4 2 Noroeste 7 Nordeste -- 1026.3 1.1 75
2019-12-09 20:00:00 14.4 4 Norte 7 Nordeste -- 1026.1 1 75
2019-12-09 19:00:00 15.4 0 Calma 7 Oeste -- 1025.6 0.6 73
2019-12-09 18:00:00 16.8 5 Oeste 10 Nordeste -- 1025.2 0.2 70
2019-12-09 17:00:00 17.3 5 Nordeste 14 Este -- 1025.1 -0.4 69
2019-12-09 16:00:00 18.2 6 Nordeste 17 Este -- 1025 -1.5 65
2019-12-09 15:00:00 19.4 4 Este 13 Este -- 1025 -2.1 58
2019-12-09 14:00:00 19.8 4 Este 8 Este -- 1025.5 -1.9 52
2019-12-09 13:00:00 19.5 4 Este 12 Sudeste -- 1026.5 -0.1 52
2019-12-09 12:00:00 18.8 2 Sur 12 Sudoeste -- 1027.1 1.3 62
2019-12-09 11:00:00 18.8 2 Sur 9 Sudeste -- 1027.4 1.8 56
2019-12-09 10:00:00 17.3 3 Este 10 Oeste -- 1026.6 1.5 64
2019-12-09 09:00:00 14.4 2 Nordeste 8 Noroeste -- 1025.8 0.9 70
2019-12-09 08:00:00 14.3 3 Sudoeste 9 Noroeste -- 1025.6 0.9 66
2019-12-09 07:00:00 14.3 3 Noroeste 10 Nordeste -- 1025.1 0.2 64
2019-12-09 06:00:00 14.3 4 Noroeste 9 Noroeste -- 1024.9 0.1 61
2019-12-09 05:00:00 13.7 3 Sur 10 Sudoeste -- 1024.7 -0.1 62
2019-12-09 04:00:00 13.8 4 Oeste 11 Oeste -- 1024.9 -0.2 61
2019-12-09 03:00:00 13.7 4 Norte 11 Este -- 1024.8 -0.5 60
2019-12-09 02:00:00 13.9 2 Noroeste 13 Oeste -- 1024.8 -0.2 59
2019-12-09 01:00:00 14.6 3 Norte 8 Oeste -- 1025.1 0 59
2019-12-09 00:00:00 14.3 5 Sudoeste 15 Este -- 1025.3 0.3 65
2019-12-08 23:00:00 14 2 Norte 7 Oeste -- 1025 0.4 63
2019-12-08 22:00:00 14.6 5 Oeste 9 Oeste -- 1025.1 0.8 62
2019-12-08 21:00:00 15 3 Oeste 7 Noroeste -- 1025 1.2 60
2019-12-08 20:00:00 15.8 3 Norte 14 Oeste -- 1024.6 1.3 56
2019-12-08 19:00:00 17.2 12 Oeste 30 Oeste -- 1024.3 1 54
2019-12-08 18:00:00 18.6 15 Oeste 34 Sudoeste -- 1023.8 0.4 52
2019-12-08 17:00:00 19.7 20 Oeste 37 Oeste -- 1023.3 -0.8 46
2019-12-08 16:00:00 20.4 19 Oeste 38 Oeste -- 1023.3 -1.8 37
2019-12-08 15:00:00 17.3 6 Sur 21 Sur -- 1023.4 -2.5 61
2019-12-08 14:00:00 17.6 7 Este 13 Este -- 1024.1 -2 62
2019-12-08 13:00:00 16.2 6 Este 10 Este -- 1025.1 -0.4 65
2019-12-08 12:00:00 15.1 4 Sur 7 Sudeste -- 1025.9 0.7 76
2019-12-08 11:00:00 14.9 4 Sudoeste 8 Sur -- 1026.1 1.3 81
2019-12-08 10:00:00 13.8 3 Sur 5 Sur -- 1025.5 1.2 86
2019-12-08 09:00:00 11.6 2 Norte 5 Noroeste -- 1025.2 1.1 86
2019-12-08 08:00:00 11 2 Oeste 5 Norte -- 1024.8 0.6 85
2019-12-08 07:00:00 12 5 Norte 6 Norte -- 1024.3 -0.1 86
2019-12-08 06:00:00 11.9 4 Noroeste 8 Noroeste -- 1024.1 -0.3 85
2019-12-08 05:00:00 11.4 2 Noroeste 5 Noroeste -- 1024.2 -0.4 85
2019-12-08 04:00:00 11.9 2 Este 4 Oeste -- 1024.4 -0.4 84
2019-12-08 03:00:00 12 3 Noroeste 5 Noroeste -- 1024.4 -0.6 84
2019-12-08 02:00:00 11.9 2 Noroeste 4 Noroeste -- 1024.6 -0.2 83
2019-12-08 01:00:00 12.3 0 Calma 6 Noroeste -- 1024.8 0.4 82
2019-12-08 00:00:00 12.6 0 Calma 5 Noroeste -- 1025 1.1 80
2019-12-07 23:00:00 12.9 0 Calma 5 Noroeste -- 1024.8 1.4 78
2019-12-07 22:00:00 13.8 3 Oeste 8 Oeste -- 1024.4 1.3 76
2019-12-07 21:00:00 14.5 4 Noroeste 6 Noroeste -- 1023.9 1.1 75
2019-12-07 20:00:00 14.6 4 Oeste 6 Noroeste -- 1023.4 1.2 74
2019-12-07 19:00:00 15.1 3 Oeste 7 Oeste -- 1023.1 1.4 72
2019-12-07 18:00:00 15.9 2 Sudoeste 5 Sudoeste -- 1022.8 1.1 68
2019-12-07 17:00:00 17 3 Sudoeste 6 Sur -- 1022.2 0.3 65
2019-12-07 16:00:00 17.7 3 Sudoeste 7 Sur -- 1021.7 -0.8 63
2019-12-07 15:00:00 18.1 2 Sudoeste 8 Oeste -- 1021.7 -1.3 62
2019-12-07 14:00:00 18.6 4 Sudoeste 7 Sudoeste -- 1021.9 -0.9 61
2019-12-07 13:00:00 18.6 4 Sudoeste 9 Sudoeste -- 1022.5 0.5 62
2019-12-07 12:00:00 17.7 7 Sudoeste 12 Sudoeste -- 1023 1.4 64
2019-12-07 11:00:00 16 3 Oeste 5 Este -- 1022.8 1.8 70
2019-12-07 10:00:00 15.2 0 Calma 4 Oeste -- 1022 1.4 72
2019-12-07 09:00:00 14.6 0 Calma 6 Sur -- 1021.6 1.3 70
2019-12-07 08:00:00 14.5 2 Noroeste 6 Nordeste -- 1021 0.8 68
2019-12-07 07:00:00 14.5 3 Nordeste 4 Nordeste -- 1020.6 0.2 67
2019-12-07 06:00:00 14.9 2 Nordeste 10 Norte -- 1020.3 -0.1 67
2019-12-07 05:00:00 15 4 Nordeste 11 Norte -- 1020.2 -0.4 67
2019-12-07 04:00:00 15.1 6 Nordeste 15 Nordeste -- 1020.4 -0.4 67
2019-12-07 03:00:00 15.1 5 Nordeste 16 Nordeste -- 1020.4 -0.3 67
2019-12-07 02:00:00 15.4 6 Nordeste 22 Nordeste -- 1020.6 0.2 66
2019-12-07 01:00:00 15.7 8 Nordeste 22 Nordeste -- 1020.8 0.7 66
2019-12-07 00:00:00 15.3 10 Nordeste 22 Nordeste -- 1020.7 0.6 67
2019-12-06 23:00:00 15 10 Nordeste 19 Nordeste -- 1020.4 0.6 66
2019-12-06 22:00:00 15 9 Nordeste 23 Nordeste -- 1020.1 1 67
2019-12-06 21:00:00 15.1 6 Nordeste 20 Nordeste -- 1020.1 1.7 67
2019-12-06 20:00:00 15.4 9 Nordeste 17 Nordeste -- 1019.8 1.9 66
2019-12-06 19:00:00 15.3 8 Nordeste 22 Este -- 1019.1 1.5 67
2019-12-06 18:00:00 16.1 9 Este 26 Este -- 1018.4 0.9 64
2019-12-06 17:00:00 16.7 10 Este 19 Este -- 1017.9 0 64
2019-12-06 16:00:00 17.3 13 Este 22 Este -- 1017.6 -1 60
2019-12-06 15:00:00 17.9 13 Este 22 Este -- 1017.5 -1.6 58
2019-12-06 14:00:00 18.6 13 Este 30 Nordeste -- 1017.9 -1.3 58
2019-12-06 13:00:00 17.9 13 Este 23 Este -- 1018.6 0 61
2019-12-06 12:00:00 18 15 Nordeste 28 Este -- 1019.1 1.6 58
2019-12-06 11:00:00 17.6 15 Este 27 Este -- 1019.2 2.3 60
2019-12-06 10:00:00 16.7 8 Nordeste 19 Nordeste -- 1018.6 2.3 58
2019-12-06 09:00:00 15.2 10 Nordeste 20 Nordeste -- 1017.5 1.4 61
2019-12-06 08:00:00 14.6 9 Nordeste 27 Nordeste -- 1016.9 1 62
2019-12-06 07:00:00 14.5 9 Nordeste 19 Nordeste -- 1016.3 0.5 63
2019-12-06 06:00:00 14.5 7 Nordeste 17 Nordeste -- 1016.1 0.4 64
2019-12-06 05:00:00 14.9 9 Nordeste 18 Norte -- 1015.9 0.3 64
2019-12-06 04:00:00 14.5 8 Nordeste 16 Nordeste -- 1015.8 0.1 69
2019-12-06 03:00:00 14.1 0 Calma 10 Nordeste -- 1015.7 -0.1 72
2019-12-06 02:00:00 14.3 4 Norte 17 Nordeste -- 1015.6 -0.3 71
2019-12-06 01:00:00 14.6 8 Nordeste 24 Este -- 1015.7 0 70
2019-12-06 00:00:00 14.7 9 Nordeste 21 Nordeste -- 1015.8 0.4 68
2019-12-05 23:00:00 14.8 8 Nordeste 17 Nordeste -- 1015.9 1.1 68
2019-12-05 22:00:00 14.7 7 Nordeste 27 Nordeste -- 1015.7 1.6 68
2019-12-05 21:00:00 15.1 14 Nordeste 30 Este -- 1015.4 1.8 70
2019-12-05 20:00:00 14.8 8 Nordeste 30 Este -- 1014.8 1.8 69
2019-12-05 19:00:00 15 10 Nordeste 36 Nordeste -- 1014.1 1.4 73
2019-12-05 18:00:00 15.3 22 Este 38 Este -- 1013.6 0.9 68
2019-12-05 17:00:00 15.3 21 Este 32 Este -- 1013 0.1 64
2019-12-05 16:00:00 15.4 18 Este 30 Este -- 1012.7 -0.4 68
2019-12-05 15:00:00 15.6 12 Nordeste 27 Este -- 1012.7 -0.8 65
2019-12-05 14:00:00 15.1 13 Este 23 Este -- 1012.9 -0.4 66
2019-12-05 13:00:00 15.3 8 Este 17 Este -- 1013.1 0.7 62
2019-12-05 12:00:00 15.3 12 Este 20 Este -- 1013.5 1.8 56
2019-12-05 11:00:00 15.4 11 Este 17 Este -- 1013.3 1.9 53
2019-12-05 10:00:00 14.6 3 Este 6 Sudeste -- 1012.4 1.7 55
2019-12-05 09:00:00 12.2 2 Sudeste 7 Este -- 1011.7 1.6 57
2019-12-05 08:00:00 11.6 2 Noroeste 7 Oeste -- 1011.4 1.3 53
2019-12-05 07:00:00 10.5 2 Sur 8 Oeste -- 1010.7 0.7 53
2019-12-05 06:00:00 11.2 0 Calma 6 Norte -- 1010.1 0.5 48
2019-12-05 05:00:00 11.6 3 Noroeste 6 Sudoeste -- 1010.1 0.5 48
2019-12-05 04:00:00 12.7 4 Norte 6 Nordeste -- 1010 0.2 43
2019-12-05 03:00:00 12.7 3 Oeste 10 Nordeste -- 1009.6 -0.1 45
2019-12-05 02:00:00 12.8 0 Calma 6 Norte -- 1009.6 0.3 43
2019-12-05 01:00:00 13.1 3 Norte 7 Oeste -- 1009.8 0.4 42
2019-12-05 00:00:00 13.4 5 Oeste 24 Oeste -- 1009.7 0.5 43
2019-12-04 23:00:00 13.3 14 Sudoeste 23 Sudoeste -- 1009.3 0.4 50
2019-12-04 22:00:00 12.6 12 Oeste 24 Oeste -- 1009.4 1.1 49
2019-12-04 21:00:00 12.5 12 Oeste 26 Oeste -- 1009.2 1.2 46
2019-12-04 20:00:00 12.9 11 Oeste 24 Oeste -- 1008.9 1.3 45
2019-12-04 19:00:00 13.4 13 Oeste 25 Noroeste -- 1008.3 1.4 48
2019-12-04 18:00:00 14.5 12 Oeste 36 Oeste -- 1008 1.3 42
2019-12-04 17:00:00 15.6 16 Oeste 40 Oeste -- 1007.6 0.4 42
2019-12-04 16:00:00 17.7 20 Sudoeste 36 Oeste -- 1006.9 -1.2 43
2019-12-04 15:00:00 17.8 20 Oeste 43 Oeste -- 1006.7 -1.8 43
2019-12-04 14:00:00 19.2 18 Oeste 38 Oeste -- 1007.2 -1.3 35
2019-12-04 13:00:00 17.2 19 Oeste 38 Oeste -- 1008.1 -0.4 48
2019-12-04 12:00:00 17.1 17 Oeste 37 Oeste -- 1008.5 0.1 51
2019-12-04 11:00:00 15.8 20 Oeste 41 Oeste -- 1008.5 0.4 60
2019-12-04 10:00:00 15.2 13 Oeste 25 Oeste -- 1008.5 0.4 60
2019-12-04 09:00:00 13.7 11 Oeste 26 Oeste -- 1008.4 0.4 65
2019-12-04 08:00:00 13.7 10 Oeste 26 Oeste -- 1008.1 -0.2 65
2019-12-04 07:00:00 13 15 Sudoeste 28 Oeste -- 1008.1 -0.6 73
2019-12-04 06:00:00 12.8 13 Oeste 23 Sudoeste -- 1008 -0.9 70
2019-12-04 05:00:00 12.6 12 Oeste 18 Oeste -- 1008.3 -0.9 70
2019-12-04 04:00:00 12.8 9 Oeste 22 Oeste -- 1008.7 -1 71
2019-12-04 03:00:00 13.8 12 Oeste 22 Oeste -- 1008.9 -0.9 67
2019-12-04 02:00:00 14.2 13 Oeste 21 Oeste -- 1009.2 -0.7 67
2019-12-04 01:00:00 13.8 7 Oeste 23 Oeste -- 1009.7 0.1 73
2019-12-04 00:00:00 13.4 10 Oeste 19 Oeste -- 1009.8 0.3 79
2019-12-03 23:00:00 13.3 2 Norte 5 Norte -- 1009.9 0.8 80
2019-12-03 22:00:00 13.5 0 Calma 4 Norte -- 1009.6 0.8 78
2019-12-03 21:00:00 13.7 2 Norte 8 Este -- 1009.5 1.1 78
2019-12-03 20:00:00 14.2 3 Este 16 Sudoeste -- 1009.1 1 75
2019-12-03 19:00:00 14.7 8 Sudoeste 19 Sudoeste -- 1008.8 1.2 76
2019-12-03 18:00:00 15.1 3 Noroeste 15 Sudoeste -- 1008.4 0.6 73
2019-12-03 17:00:00 15.2 8 Sudoeste 20 Sudoeste -- 1008.1 -0.2 76
2019-12-03 16:00:00 15.2 10 Sudoeste 17 Sudoeste -- 1007.6 -1.5 71
2019-12-03 15:00:00 16 6 Sudoeste 13 Sudoeste -- 1007.8 -1.1 70
2019-12-03 14:00:00 15.3 4 Este 12 Este -- 1008.3 -0.4 72
2019-12-03 13:00:00 15.1 6 Este 16 Este -- 1009.1 1 73
2019-12-03 12:00:00 15.3 2 Sudeste 8 Este -- 1008.9 0.5 73
2019-12-03 11:00:00 14.4 4 Este 9 Este -- 1008.7 0.5 76
2019-12-03 10:00:00 13.1 3 Oeste 7 Nordeste -- 1008.1 0 79
2019-12-03 09:00:00 12.3 3 Norte 7 Nordeste -- 1008.4 -0.1 79
2019-12-03 08:00:00 12.7 7 Oeste 14 Oeste -- 1008.2 -0.5 78
2019-12-03 07:00:00 12.4 7 Oeste 10 Oeste -- 1008.1 -1 82
2019-12-03 06:00:00 12.6 4 Nordeste 9 Este -- 1008.5 -1.3 82
2019-12-03 05:00:00 12.7 0 Calma 4 Oeste -- 1008.7 -1.5 81
2019-12-03 04:00:00 12.8 2 Norte 13 Nordeste -- 1009.1 -1.3 81
2019-12-03 03:00:00 13 8 Nordeste 21 Nordeste -- 1009.8 -0.8 83
2019-12-03 02:00:00 13.4 9 Nordeste 38 Este -- 1010.2 -0.4 85
2019-12-03 01:00:00 13.7 8 Nordeste 30 Este -- 1010.4 -0.1 85
2019-12-03 00:00:00 13.6 9 Nordeste 24 Norte -- 1010.6 0.4 84
2019-12-02 23:00:00 13.4 11 Nordeste 21 Nordeste -- 1010.6 0.7 82
2019-12-02 22:00:00 13.1 10 Nordeste 26 Nordeste -- 1010.5 1.3 79
2019-12-02 21:00:00 13.1 10 Nordeste 25 Nordeste -- 1010.2 1.7 82
2019-12-02 20:00:00 13.7 10 Nordeste 27 Nordeste -- 1009.9 1.7 81
2019-12-02 19:00:00 13 10 Nordeste 26 Nordeste -- 1009.2 1.4 79
2019-12-02 18:00:00 12.7 11 Nordeste 23 Nordeste -- 1008.5 0.4 81
2019-12-02 17:00:00 12.5 8 Nordeste 23 Nordeste -- 1008.2 -0.5 80
2019-12-02 16:00:00 12 10 Nordeste 22 Nordeste -- 1007.8 -0.8 81
2019-12-02 15:00:00 12.4 10 Nordeste 22 Nordeste -- 1008.1 -1 82
2019-12-02 14:00:00 13.3 14 Nordeste 30 Este -- 1008.7 -0.3 79
2019-12-02 13:00:00 14.4 9 Nordeste 19 Nordeste -- 1008.6 0.3 82
2019-12-02 12:00:00 13.3 11 Nordeste 23 Nordeste -- 1009.1 1.2 83
2019-12-02 11:00:00 12.8 7 Nordeste 19 Nordeste -- 1009 1.6 82
2019-12-02 10:00:00 12.9 8 Nordeste 17 Nordeste -- 1008.3 1 83
2019-12-02 09:00:00 12.9 2 Nordeste 6 Nordeste -- 1007.9 0.7 81
2019-12-02 08:00:00 12.7 0 Calma 12 Este -- 1007.4 -0.2 81
2019-12-02 07:00:00 12.9 5 Nordeste 10 Nordeste -- 1007.3 -0.4 80
2019-12-02 06:00:00 12.3 3 Norte 11 Nordeste -- 1007.2 -0.8 80
2019-12-02 05:00:00 11.8 5 Nordeste 12 Nordeste -- 1007.6 -0.7 82
2019-12-02 04:00:00 11.6 2 Noroeste 9 Nordeste -- 1007.7 -1.2 83
2019-12-02 03:00:00 11.7 3 Sudeste 7 Nordeste -- 1008 -1.2 82
2019-12-02 02:00:00 12.2 3 Nordeste 8 Oeste -- 1008.3 -1.2 81
2019-12-02 01:00:00 12.8 4 Sudoeste 14 Oeste -- 1008.9 -0.8 80
2019-12-02 00:00:00 12.6 5 Oeste 9 Sudoeste -- 1009.2 -1 80
2019-12-01 23:00:00 12.8 5 Oeste 18 Oeste -- 1009.5 -0.9 79
2019-12-01 22:00:00 13.2 9 Oeste 21 Sudoeste -- 1009.7 -0.4 81
2019-12-01 21:00:00 13.2 10 Oeste 15 Oeste -- 1010.2 -0.2 82
2019-12-01 20:00:00 13.7 9 Sudoeste 17 Sudoeste -- 1010.4 -0.3 82
2019-12-01 19:00:00 14 8 Sudoeste 21 Sudoeste -- 1010.1 -0.6 82
2019-12-01 18:00:00 14.5 11 Oeste 26 Oeste -- 1010.4 -0.8 78
2019-12-01 17:00:00 15.4 11 Oeste 41 Oeste -- 1010.7 -1.3 72
2019-12-01 16:00:00 18.3 17 Sudoeste 39 Sudoeste -- 1010.7 -2 49
2019-12-01 15:00:00 19.2 18 Oeste 39 Oeste -- 1011.2 -1.9 40
2019-12-01 14:00:00 19.6 20 Oeste 42 Oeste -- 1012 -1.9 38
2019-12-01 13:00:00 19.3 21 Oeste 47 Sudoeste -- 1012.7 -1.2 35
2019-12-01 12:00:00 18.2 23 Sudoeste 41 Sudoeste -- 1013.1 -0.5 42
2019-12-01 11:00:00 17.7 13 Oeste 42 Oeste -- 1013.9 0.6 46
2019-12-01 10:00:00 16.1 15 Oeste 32 Sudoeste -- 1013.9 0.5 58
2019-12-01 09:00:00 14.6 14 Sudoeste 34 Sudoeste -- 1013.6 0.1 66
2019-12-01 08:00:00 14.9 16 Oeste 34 Oeste -- 1013.3 -0.6 61
2019-12-01 07:00:00 15.9 20 Oeste 37 Oeste -- 1013.4 -1.3 58
2019-12-01 06:00:00 15.9 8 Oeste 36 Oeste -- 1013.5 -1.9 59
2019-12-01 05:00:00 16.1 13 Oeste 31 Sudoeste -- 1013.9 -2.3 66
2019-12-01 04:00:00 15.8 18 Oeste 37 Oeste -- 1014.7 -2 79
2019-12-01 03:00:00 15.9 17 Sudoeste 30 Sudoeste -- 1015.4 -1.3 74
2019-12-01 02:00:00 16.3 19 Sudoeste 30 Oeste -- 1016.2 -0.7 67
2019-12-01 01:00:00 16.6 5 Oeste 28 Oeste -- 1016.7 -0.7 60
2019-12-01 00:00:00 14.7 6 Oeste 17 Sur -- 1016.7 -0.9 69
2019-11-30 23:00:00 14.1 9 Nordeste 15 Nordeste -- 1016.9 -0.5 73
2019-11-30 22:00:00 14.8 3 Nordeste 12 Nordeste -- 1017.4 -0.1 68
2019-11-30 21:00:00 16.1 5 Norte 32 Oeste -- 1017.6 0 62
2019-11-30 20:00:00 16.9 15 Sudoeste 27 Oeste -- 1017.4 -0.5 63
2019-11-30 19:00:00 17.8 13 Oeste 26 Sudoeste -- 1017.5 -0.9 57
2019-11-30 18:00:00 15.5 7 Nordeste 15 Nordeste -- 1017.6 -1.1 72
2019-11-30 17:00:00 16.3 5 Este 9 Este -- 1017.9 -1.7 70
2019-11-30 16:00:00 16.4 3 Sur 7 Sur -- 1018.4 -2.2 69
2019-11-30 15:00:00 16.6 4 Sudeste 8 Sudeste -- 1018.7 -2.7 70
2019-11-30 14:00:00 17.6 4 Sudeste 9 Sudeste -- 1019.6 -2 68
2019-11-30 13:00:00 16.6 4 Sudoeste 7 Sudoeste -- 1020.6 -0.7 68
2019-11-30 12:00:00 16.9 2 Sudoeste 6 Sudeste -- 1021.4 0.7 65
2019-11-30 11:00:00 16.5 3 Sudeste 5 Sudeste -- 1021.6 1.4 67
2019-11-30 10:00:00 13.8 2 Oeste 4 Sudoeste -- 1021.3 1.3 80
2019-11-30 09:00:00 12.4 2 Sudoeste 5 Sudeste -- 1020.7 0.9 82
2019-11-30 08:00:00 11.8 3 Oeste 5 Oeste -- 1020.2 0 82
2019-11-30 07:00:00 11.9 3 Oeste 4 Sudoeste -- 1020 -0.3 81
2019-11-30 06:00:00 12 3 Oeste 6 Noroeste -- 1019.8 -0.6 80
2019-11-30 05:00:00 12 0 Calma 4 Norte -- 1020.2 -0.3 80
2019-11-30 04:00:00 12.4 2 Noroeste 5 Norte -- 1020.3 -0.3 79
2019-11-30 03:00:00 12.9 2 Noroeste 4 Noroeste -- 1020.4 0 79
2019-11-30 02:00:00 13.3 2 Noroeste 6 Noroeste -- 1020.5 0.3 78
2019-11-30 01:00:00 13.7 3 Nordeste 10 Norte -- 1020.6 0.5 77
2019-11-30 00:00:00 13 6 Nordeste 10 Norte -- 1020.4 0.5 79
2019-11-29 23:00:00 13.3 3 Oeste 4 Oeste -- 1020.2 0.4 79
2019-11-29 22:00:00 13.9 2 Oeste 6 Sur -- 1020.1 0.6 77
2019-11-29 21:00:00 13.9 0 Calma 9 Oeste -- 1019.9 0.8 77
2019-11-29 20:00:00 14.8 5 Oeste 9 Oeste -- 1019.8 1 76
2019-11-29 19:00:00 15.2 4 Nordeste 8 Nordeste -- 1019.5 0.8 74
2019-11-29 18:00:00 16.6 4 Nordeste 9 Nordeste -- 1019.1 0.2 68
2019-11-29 17:00:00 17.9 4 Nordeste 8 Este -- 1018.8 -0.6 64
2019-11-29 16:00:00 18.8 3 Sudoeste 8 Oeste -- 1018.7 -1.4 58
2019-11-29 15:00:00 18.7 4 Sudoeste 13 Sudoeste -- 1018.9 -1.8 59
2019-11-29 14:00:00 19.3 8 Sudoeste 14 Sudoeste -- 1019.4 -1.2 57
2019-11-29 13:00:00 18 4 Sudoeste 8 Sudoeste -- 1020.1 0 58
2019-11-29 12:00:00 16.5 3 Sudoeste 6 Sudoeste -- 1020.7 1.1 62
2019-11-29 11:00:00 15.9 3 Sudoeste 5 Sudoeste -- 1020.6 1.5 68
2019-11-29 10:00:00 14.4 2 Sudoeste 6 Sudoeste -- 1020.1 1.5 74
2019-11-29 09:00:00 12.6 2 Sudoeste 7 Norte -- 1019.6 1.3 77
2019-11-29 08:00:00 11.3 2 Nordeste 5 Oeste -- 1019.1 0.8 78
2019-11-29 07:00:00 11.4 0 Calma 6 Noroeste -- 1018.6 0.3 77
2019-11-29 06:00:00 11.5 2 Oeste 5 Nordeste -- 1018.3 -0.1 75
2019-11-29 05:00:00 11.4 3 Este 5 Este -- 1018.3 0 75
2019-11-29 04:00:00 11.6 0 Calma 7 Nordeste -- 1018.3 -0.3 75
2019-11-29 03:00:00 11.7 2 Nordeste 6 Nordeste -- 1018.4 -0.1 75
2019-11-29 02:00:00 11.9 0 Calma 4 Nordeste -- 1018.3 -0.2 74
2019-11-29 01:00:00 12.2 0 Calma 5 Oeste -- 1018.6 0.3 73
2019-11-29 00:00:00 12.6 3 Oeste 4 Noroeste -- 1018.5 0.5 73
2019-11-28 23:00:00 13.1 3 Este 8 Este -- 1018.5 0.9 73
2019-11-28 22:00:00 13.4 3 Noroeste 6 Nordeste -- 1018.3 1 68
2019-11-28 21:00:00 14.1 0 Calma 4 Sudeste -- 1018 1.1 66
2019-11-28 20:00:00 14.9 4 Oeste 6 Oeste -- 1017.6 1 61
2019-11-28 19:00:00 15.5 3 Oeste 8 Nordeste -- 1017.3 0.7 62
2019-11-28 18:00:00 16.6 6 Nordeste 9 Este -- 1016.9 0.2 60
2019-11-28 17:00:00 18 4 Nordeste 14 Este -- 1016.6 -0.8 54
2019-11-28 16:00:00 17.3 8 Este 14 Este -- 1016.6 -1.4 60
2019-11-28 15:00:00 17.9 8 Este 17 Este -- 1016.7 -2 59
2019-11-28 14:00:00 18.2 9 Este 18 Este -- 1017.4 -1.3 62
2019-11-28 13:00:00 18.3 12 Este 18 Este -- 1018 -0.4 52
2019-11-28 12:00:00 18.4 9 Este 18 Este -- 1018.7 0.8 51
2019-11-28 11:00:00 18 8 Este 13 Este -- 1018.7 1.5 53
2019-11-28 10:00:00 17.3 5 Este 11 Este -- 1018.4 1.5 57
2019-11-28 09:00:00 13.9 3 Este 11 Nordeste -- 1017.9 1.4 67
2019-11-28 08:00:00 12.8 4 Nordeste 9 Oeste -- 1017.2 0.8 69
2019-11-28 07:00:00 12.6 3 Nordeste 7 Norte -- 1016.9 0.4 69
2019-11-28 06:00:00 12.9 5 Norte 8 Norte -- 1016.5 0 71
2019-11-28 05:00:00 12.6 3 Nordeste 9 Nordeste -- 1016.4 -0.1 71
2019-11-28 04:00:00 13 2 Noroeste 9 Sudoeste -- 1016.5 -0.5 70
2019-11-28 03:00:00 13.7 3 Noroeste 16 Oeste -- 1016.5 -0.4 70
2019-11-28 02:00:00 14.5 9 Sudoeste 16 Oeste -- 1016.5 -0.4 71
2019-11-28 01:00:00 15.1 5 Sudoeste 22 Oeste -- 1017 0.5 65
2019-11-28 00:00:00 15.8 13 Oeste 21 Oeste -- 1016.9 0.9 65
2019-11-27 23:00:00 16 10 Oeste 27 Oeste -- 1016.9 1.1 66
2019-11-27 22:00:00 15.8 12 Oeste 26 Sudoeste -- 1016.5 1.6 71
2019-11-27 21:00:00 16.2 13 Oeste 28 Sudoeste -- 1016 1.3 70
2019-11-27 20:00:00 16.8 13 Oeste 32 Oeste -- 1015.8 1.6 68
2019-11-27 19:00:00 17.3 18 Sudoeste 31 Sudoeste -- 1014.9 1 68
2019-11-27 18:00:00 18.5 15 Sudoeste 29 Sudoeste -- 1014.7 0.7 63
2019-11-27 17:00:00 20.3 12 Oeste 33 Oeste -- 1014.2 -0.3 54
2019-11-27 16:00:00 21.2 13 Oeste 32 Oeste -- 1013.9 -1 45
2019-11-27 15:00:00 20.3 18 Oeste 37 Oeste -- 1014 -1.6 48
2019-11-27 14:00:00 21 17 Oeste 35 Sudoeste -- 1014.5 -1.3 46
2019-11-27 06:00:00 16.5 18 Oeste 29 Oeste -- 1013.1 -1.2 78
2019-11-27 05:00:00 16.9 15 Oeste 31 Oeste -- 1013.4 -1.2 79
2019-11-27 04:00:00 17.1 14 Sudoeste 27 Oeste -- 1014 -0.7 75
2019-11-27 03:00:00 17.6 16 Oeste 33 Oeste -- 1014.3 -0.1 70
2019-11-27 02:00:00 18 14 Oeste 38 Noroeste -- 1014.6 0 68
2019-11-27 01:00:00 18.5 18 Oeste 43 Sudoeste -- 1014.7 0.3 64
2019-11-27 00:00:00 18.3 19 Oeste 44 Sudoeste -- 1014.4 0 63
2019-11-26 23:00:00 18.3 18 Oeste 46 Sudoeste -- 1014.6 0.4 62
2019-11-26 22:00:00 18.5 23 Oeste 43 Oeste -- 1014.4 0.6 59
2019-11-26 21:00:00 18.7 11 Oeste 34 Oeste -- 1014.4 0.8 58
2019-11-26 20:00:00 19.2 10 Oeste 33 Oeste -- 1014.2 0.7 55
2019-11-26 19:00:00 19.4 13 Oeste 34 Sudoeste -- 1013.8 0.7 54
2019-11-26 18:00:00 20.3 17 Sudoeste 32 Oeste -- 1013.6 0.3 57
2019-11-26 17:00:00 20.6 17 Sudoeste 47 Sudoeste -- 1013.5 -0.4 61
2019-11-26 16:00:00 20.5 24 Oeste 48 Oeste -- 1013.1 -1.5 63
2019-11-26 15:00:00 21.4 24 Sudoeste 38 Oeste -- 1013.3 -2.2 61
2019-11-26 14:00:00 22.8 17 Sudoeste 36 Sudoeste -- 1013.9 -2.1 54
2019-11-26 13:00:00 23 18 Sudoeste 32 Oeste -- 1014.6 -1.3 53
2019-11-26 12:00:00 21.7 14 Oeste 27 Sudoeste -- 1015.5 -0.4 56
2019-11-26 11:00:00 19.7 7 Este 16 Este -- 1016 0.5 60
2019-11-26 10:00:00 18.6 8 Este 13 Este -- 1015.9 0.7 61
2019-11-26 09:00:00 16.2 2 Noroeste 7 Norte -- 1015.9 0.8 73
2019-11-26 08:00:00 14.2 3 Norte 8 Este -- 1015.5 0.2 75
2019-11-26 07:00:00 15.2 2 Noroeste 9 Oeste -- 1015.2 -0.5 72
2019-11-26 06:00:00 15.7 4 Norte 10 Nordeste -- 1015.1 -0.6 72
2019-11-26 05:00:00 16.4 2 Sudeste 17 Oeste -- 1015.3 -0.6 67
2019-11-26 04:00:00 18.1 8 Oeste 32 Oeste -- 1015.7 -1 63
2019-11-26 03:00:00 17.9 15 Oeste 31 Oeste -- 1015.7 -1.3 68
2019-11-26 02:00:00 17 18 Oeste 32 Oeste -- 1015.9 -1.3 80
2019-11-26 01:00:00 17.2 19 Oeste 31 Oeste -- 1016.7 -0.7 80
2019-11-26 00:00:00 17 17 Sudoeste 32 Oeste -- 1017 -0.4 79
2019-11-25 23:00:00 17.1 19 Sudoeste 33 Oeste -- 1017.2 -0.2 78
2019-11-25 22:00:00 17.1 16 Sudoeste 31 Sudoeste -- 1017.4 0.3 77
2019-11-25 21:00:00 17.3 16 Sudoeste 27 Oeste -- 1017.4 0.2 76
2019-11-25 20:00:00 17.4 17 Oeste 35 Sudoeste -- 1017.4 0.5 76
2019-11-25 19:00:00 17.4 18 Oeste 29 Sudoeste -- 1017.1 0.3 76
2019-11-25 18:00:00 18.2 16 Oeste 31 Oeste -- 1017.2 0.2 72
2019-11-25 17:00:00 19.2 15 Oeste 33 Sudoeste -- 1016.9 -0.1 66
2019-11-25 16:00:00 19.3 16 Oeste 40 Oeste -- 1016.8 -0.3 65
2019-11-25 15:00:00 19.8 17 Oeste 40 Sudoeste -- 1017 -0.9 61
2019-11-25 14:00:00 20.8 17 Oeste 36 Sudoeste -- 1017 -1 58
2019-11-25 13:00:00 20.1 20 Oeste 40 Oeste -- 1017.1 -0.6 59
2019-11-25 12:00:00 19 28 Oeste 48 Oeste -- 1017.9 0.4 62
2019-11-25 11:00:00 17.8 23 Sudoeste 48 Sudoeste -- 1018 0.8 67
2019-11-25 10:00:00 17 27 Sudoeste 44 Sudoeste -- 1017.7 1 68
2019-11-25 09:00:00 15.7 29 Sudoeste 48 Oeste -- 1017.5 0.9 71
2019-11-25 08:00:00 16.1 11 Oeste 31 Oeste -- 1017.2 0.6 65
2019-11-25 07:00:00 16 12 Oeste 30 Oeste -- 1016.7 -0.1 62
2019-11-25 06:00:00 14.6 10 Oeste 31 Sudoeste -- 1016.6 -0.4 64
2019-11-25 05:00:00 14.1 15 Oeste 32 Sudoeste -- 1016.6 -0.5 65
2019-11-25 04:00:00 12.4 4 Sudoeste 16 Oeste -- 1016.8 -0.6 65
2019-11-25 03:00:00 13 4 Noroeste 14 Oeste -- 1017 -0.6 62
2019-11-25 02:00:00 14.4 9 Oeste 24 Noroeste -- 1017.1 -0.5 58
2019-11-25 01:00:00 14.3 10 Oeste 27 Oeste -- 1017.4 -0.4 58
2019-11-25 00:00:00 14.1 9 Oeste 26 Oeste -- 1017.6 -0.1 60
2019-11-24 23:00:00 13.6 12 Sudoeste 21 Oeste -- 1017.6 0.1 59
2019-11-24 22:00:00 13.2 3 Oeste 15 Oeste -- 1017.8 0.7 59
2019-11-24 21:00:00 14.3 10 Oeste 24 Oeste -- 1017.7 1.4 57
2019-11-24 20:00:00 14.9 11 Oeste 22 Oeste -- 1017.5 1.5 51
2019-11-24 19:00:00 15.9 5 Noroeste 27 Sudoeste -- 1017.1 1.4 46
2019-11-24 18:00:00 16.4 10 Oeste 29 Oeste -- 1016.3 0.7 45
2019-11-24 17:00:00 17.8 15 Oeste 41 Oeste -- 1016 0.2 39
2019-11-24 16:00:00 18.7 20 Oeste 42 Oeste -- 1015.7 -0.6 35
2019-11-24 15:00:00 19 16 Oeste 37 Oeste -- 1015.6 -1.9 31
2019-11-24 14:00:00 19.3 17 Oeste 42 Oeste -- 1015.8 -1.9 27
2019-11-24 13:00:00 19 14 Oeste 32 Sudoeste -- 1016.3 -1.1 31
2019-11-24 12:00:00 17.7 11 Oeste 24 Sudoeste 0 1017.5 0.4 40
2019-11-24 11:00:00 16.1 10 Oeste 19 Oeste 0 1017.7 1.1 46
2019-11-24 10:00:00 14.1 5 Oeste 12 Oeste 0 1017.4 1.7 55
2019-11-24 09:00:00 11.1 4 Nordeste 8 Noroeste 0 1017.1 1.9 66
2019-11-24 08:00:00 10.2 3 Noroeste 8 Noroeste 0 1016.6 1.8 68
2019-11-24 07:00:00 10.4 3 Este 8 Norte 0 1015.7 1 69
2019-11-24 06:00:00 10.9 3 Norte 10 Nordeste 0 1015.2 0.5 67
2019-11-24 05:00:00 11.5 4 Noroeste 12 Nordeste 0 1014.8 0.2 63
2019-11-24 04:00:00 12 4 Norte 9 Noroeste 0 1014.7 0.3 60
2019-11-24 03:00:00 12.7 4 Este 14 Oeste 0 1014.7 0.2 58
2019-11-24 02:00:00 13 8 Sur 23 Sudoeste 0 1014.6 0.1 61
2019-11-24 01:00:00 13.7 12 Sudoeste 29 Sur 0 1014.4 0.1 60
2019-11-24 00:00:00 13.8 12 Sur 24 Sudoeste 0 1014.5 0.6 63
2019-11-23 23:00:00 13.7 8 Oeste 27 Noroeste 0 1014.5 1.2 60
2019-11-23 22:00:00 14 11 Oeste 29 Oeste 0 1014.3 2 61
2019-11-23 21:00:00 14.7 19 Oeste 35 Oeste 0 1013.9 2.7 59
2019-11-23 20:00:00 14.9 19 Oeste 34 Sudoeste 0 1013.3 3 62
2019-11-23 19:00:00 15.7 13 Sudoeste 27 Sudoeste 0 1012.3 2.8 57
2019-11-23 18:00:00 16.5 11 Oeste 24 Oeste 0 1011.2 1.7 46
2019-11-23 17:00:00 16.8 10 Oeste 36 Noroeste 0 1010.3 1 42
2019-11-23 16:00:00 17.4 11 Oeste 39 Noroeste 0 1009.5 0.2 38
2019-11-23 15:00:00 17.2 14 Oeste 37 Noroeste 0 1009.5 0.3 40
2019-11-23 14:00:00 17.2 12 Oeste 35 Oeste 0 1009.3 0.8 40
2019-11-23 13:00:00 17.6 13 Oeste 44 Oeste 0 1009.3 2.1 41
2019-11-23 12:00:00 16.4 18 Oeste 47 Oeste 0 1009.2 3.7 46
2019-11-23 11:00:00 16.1 22 Oeste 51 Sudoeste 0 1008.5 4.4 48
2019-11-23 10:00:00 15.2 21 Oeste 45 Oeste 0 1007.2 3.9 54
2019-11-23 09:00:00 14.9 21 Oeste 59 Oeste 0 1005.5 2 57
2019-11-23 08:00:00 15.1 24 Oeste 49 Oeste 0 1004.1 1.2 56
2019-11-23 07:00:00 14.7 17 Oeste 40 Oeste 0 1003.3 0.9 69
2019-11-23 06:00:00 15.4 18 Oeste 46 Oeste 0 1003.5 1.7 62
2019-11-23 05:00:00 15.9 23 Oeste 51 Oeste 0 1002.9 1.2 56
2019-11-23 04:00:00 16.3 23 Oeste 45 Oeste 0 1002.4 1.1 56
2019-11-23 03:00:00 16.4 23 Oeste 55 Oeste 0 1001.8 1.3 59
2019-11-23 02:00:00 16.5 25 Oeste 57 Oeste 0 1001.7 2.7 61
2019-11-23 01:00:00 17 24 Oeste 51 Oeste 0 1001.3 1.8 60
2019-11-23 00:00:00 17.2 26 Oeste 68 Oeste 0 1000.5 0.8 55
2019-11-22 23:00:00 17.4 32 Oeste 70 Noroeste 0 999 0 54
2019-11-22 22:00:00 17.4 23 Oeste 67 Oeste 0 999.5 0.3 63
2019-11-22 21:00:00 18.1 20 Oeste 72 Oeste 0 999.7 0.9 84
2019-11-22 20:00:00 18.1 30 Oeste 58 Sudoeste 0 999 -0.1 83
2019-11-22 19:00:00 18.2 29 Oeste 67 Oeste 0 999.2 -0.5 79
2019-11-22 18:00:00 19.4 30 Oeste 66 Oeste 0 998.8 -1.9 72
2019-11-22 17:00:00 18.9 26 Oeste 54 Sudoeste 0 999.1 -2.5 75
2019-11-22 16:00:00 18.1 19 Oeste 44 Oeste 0 999.7 -3.6 82
2019-11-22 15:00:00 16.9 23 Oeste 44 Sudoeste 0 1000.7 -4.3 87
2019-11-22 14:00:00 16.2 23 Sudoeste 50 Sudoeste 0 1001.6 -4.1 86
2019-11-22 13:00:00 16.2 18 Sudoeste 33 Sudoeste 0 1003.3 -2 88
2019-11-22 12:00:00 15.2 13 Sudoeste 31 Sudoeste 0 1005 -0.5 88
2019-11-22 11:00:00 15.1 18 Sudoeste 31 Sudoeste 0 1005.7 0.3 88
2019-11-22 10:00:00 15.3 10 Oeste 29 Sudoeste 0 1005.3 -0.1 89
2019-11-22 09:00:00 15.1 6 Oeste 16 Sudoeste 0 1005.5 -0.2 89
2019-11-22 08:00:00 14.8 7 Sudoeste 15 Sudoeste 0 1005.4 -1 88
2019-11-22 07:00:00 14.9 8 Sudoeste 15 Oeste 0 1005.4 -1.4 88
2019-11-22 06:00:00 14.7 9 Sudoeste 24 Sudoeste 0 1005.7 -1.3 88
2019-11-22 05:00:00 14.8 8 Sudoeste 26 Sudoeste 0 1006.4 -1.2 88
2019-11-22 04:00:00 14.9 12 Sudoeste 22 Sudoeste 0 1006.8 -1.4 88
2019-11-22 03:00:00 14.8 10 Oeste 19 Oeste 0 1007 -1.8 88
2019-11-22 02:00:00 14.6 5 Oeste 8 Oeste 0 1007.6 -1.4 88
2019-11-22 01:00:00 14.6 0 Calma 5 Sudoeste 0.2 1008.2 -1.1 88
2019-11-22 00:00:00 14.6 2 Sudoeste 10 Oeste 0 1008.8 -0.5 88
2019-11-21 23:00:00 14.6 6 Oeste 11 Oeste 0 1009 0 88
2019-11-21 22:00:00 14.6 4 Oeste 8 Sudoeste 0 1009.3 0.5 88
2019-11-21 21:00:00 14.8 5 Oeste 9 Sudoeste 0 1009.3 0.6 88
2019-11-21 20:00:00 14.8 4 Oeste 14 Oeste 0 1009 0.6 88
2019-11-21 19:00:00 14.7 6 Oeste 12 Sudoeste 0 1008.8 0.2 88
2019-11-21 18:00:00 14.7 8 Sudoeste 14 Sudoeste 0 1008.7 0 87
2019-11-21 17:00:00 14.9 5 Sudoeste 13 Sudoeste 0 1008.4 -0.8 87
2019-11-21 16:00:00 14.8 3 Este 6 Sudeste 0 1008.6 -1.3 87
2019-11-21 15:00:00 15.1 3 Este 7 Nordeste 0 1008.7 -2.2 87
2019-11-21 14:00:00 15 3 Sudeste 8 Sudeste 0 1009.2 -1.8 87
2019-11-21 13:00:00 14.9 4 Este 8 Este 0 1009.9 -0.9 88
2019-11-21 12:00:00 14.1 5 Nordeste 12 Este 0 1010.9 0.4 87
2019-11-21 11:00:00 14 4 Este 10 Este 0 1011 0.7 88
2019-11-21 10:00:00 13.4 5 Este 9 Este 0 1010.8 0.8 87
2019-11-21 09:00:00 13.1 3 Nordeste 10 Nordeste 0 1010.5 0.5 87
2019-11-21 08:00:00 12.9 3 Nordeste 8 Este 0 1010.3 0.1 87
2019-11-21 07:00:00 12.7 4 Nordeste 10 Nordeste 0 1010 -0.6 87
2019-11-21 06:00:00 12.6 3 Este 6 Este 0 1010 -0.9 86
2019-11-21 05:00:00 12.5 2 Este 5 Nordeste 0 1010.2 -0.8 86
2019-11-21 04:00:00 12.6 4 Nordeste 11 Noroeste 0 1010.6 -0.8 86
2019-11-21 03:00:00 12.2 3 Norte 6 Oeste 0 1010.9 -0.8 86
2019-11-21 02:00:00 12 3 Nordeste 9 Nordeste 0 1011 -0.9 85
2019-11-21 01:00:00 11.7 3 Nordeste 7 Oeste 0 1011.4 -0.3 84
2019-11-21 00:00:00 12 0 Calma 6 Oeste 0 1011.7 0.1 84
2019-11-20 23:00:00 12.4 3 Oeste 4 Noroeste 0 1011.9 0.6 83
2019-11-20 22:00:00 12.7 0 Calma 4 Oeste 0 1011.7 0.8 83
2019-11-20 21:00:00 12.9 2 Sudoeste 4 Sudeste 0 1011.6 1.1 83
2019-11-20 20:00:00 12.9 2 Este 5 Sudeste 0 1011.3 0.6 82
2019-11-20 19:00:00 12.9 3 Sudeste 11 Oeste 0 1010.9 0 82
2019-11-20 18:00:00 12.9 4 Sudoeste 9 Sudoeste 0 1010.5 -0.5 82
2019-11-20 17:00:00 13.1 2 Oeste 8 Oeste 0 1010.7 -0.8 80
2019-11-20 16:00:00 13.2 2 Oeste 9 Sudeste 0 1010.9 -0.9 80
2019-11-20 15:00:00 12.9 5 Sudeste 18 Este 0 1011 -1.9 81
2019-11-20 14:00:00 12.7 5 Este 12 Nordeste 0 1011.5 -1.5 79
2019-11-20 13:00:00 12.6 6 Este 12 Este 0 1011.8 -1 79
2019-11-20 12:00:00 12.7 3 Este 6 Sudeste 0 1012.9 0.3 78
2019-11-20 11:00:00 12.7 0 Calma 5 Norte 0 1013 0.4 75
2019-11-20 10:00:00 12.4 0 Calma 9 Este 0 1012.8 0.4 68
2019-11-20 09:00:00 11.6 4 Este 6 Este 0 1012.6 0.1 68
2019-11-20 08:00:00 9.9 2 Sur 9 Noroeste 0 1012.6 0 62
2019-11-20 07:00:00 10.8 6 Oeste 13 Oeste 0 1012.4 -0.6 55
2019-11-20 06:00:00 9.6 8 Oeste 12 Oeste 0 1012.5 -0.9 69
2019-11-20 05:00:00 9 3 Oeste 5 Oeste 0 1012.6 -1.2 74
2019-11-20 04:00:00 9.4 0 Calma 4 Noroeste 0 1013 -1.1 72
2019-11-20 03:00:00 10.3 0 Calma 7 Sudeste 0 1013.4 -0.9 70
2019-11-20 02:00:00 11.3 0 Calma 5 Norte 0 1013.8 -0.8 64
2019-11-20 01:00:00 12.1 4 Este 6 Norte 0 1014.1 -0.8 61
2019-11-20 00:00:00 12.9 0 Calma 7 Oeste 0 1014.3 -0.5 58
2019-11-19 23:00:00 14 5 Oeste -- -- -- 1014.6 -0.3 53
2019-11-19 22:00:00 14.2 5 Oeste 11 Oeste 0 1014.9 0.1 55
2019-11-19 21:00:00 14.4 6 Oeste 15 Oeste 0 1014.8 0.3 57
2019-11-19 20:00:00 14.8 10 Oeste 19 Oeste 0 1014.9 -- 59
2019-11-19 19:00:00 15.1 9 Oeste 24 Oeste 0 1014.8 -- 57
2019-11-19 18:00:00 16 13 Oeste -- -- -- 1014.5 -- 53
2019-11-19 17:00:00 -- -- -- -- -- -- -- -- --
2019-11-19 16:00:00 -- -- -- -- -- -- -- -- --
2019-11-19 15:00:00 -- -- -- -- -- -- -- -- --
2019-11-19 14:00:00 -- -- -- -- -- -- -- -- --
2019-11-19 13:00:00 -- -- -- -- -- -- -- -- --
2019-11-19 12:00:00 -- -- -- -- -- -- -- -- --
2019-11-19 11:00:00 -- -- -- -- -- -- -- -- --
2019-11-19 10:00:00 -- -- -- -- -- -- -- -- --
2019-11-19 09:00:00 -- -- -- -- -- -- -- -- --
2019-11-19 08:00:00 -- -- -- -- -- -- -- -- --
2019-11-19 07:00:00 -- -- -- -- -- -- -- -- --
2019-11-19 06:00:00 -- -- -- -- -- -- -- -- --
2019-11-19 05:00:00 -- -- -- -- -- -- -- -- --
2019-11-19 04:00:00 -- -- -- -- -- -- -- -- --
2019-11-19 03:00:00 -- -- -- -- -- -- -- -- --
2019-11-19 02:00:00 -- -- -- -- -- -- -- -- --
2019-11-19 01:00:00 -- -- -- -- -- -- -- -- --
2019-11-19 00:00:00 -- -- -- -- -- -- -- -- --
2019-11-18 23:00:00 -- -- -- -- -- -- -- -- --
2019-11-18 22:00:00 -- -- -- -- -- -- -- -- --
2019-11-18 21:00:00 -- -- -- -- -- -- -- -- --
2019-11-18 20:00:00 -- -- -- -- -- -- -- -- --
2019-11-18 19:00:00 -- -- -- -- -- -- -- -- --
2019-11-18 18:00:00 -- -- -- -- -- -- -- -- --
2019-11-18 17:00:00 -- -- -- -- -- -- -- -- --
2019-11-18 16:00:00 -- -- -- -- -- -- -- -- --
2019-11-18 15:00:00 -- -- -- -- -- -- -- -- --
2019-11-18 14:00:00 -- -- -- -- -- -- -- -- --
2019-11-18 13:00:00 -- -- -- -- -- -- -- -- --
2019-11-18 12:00:00 -- -- -- -- -- -- -- -- --
2019-11-18 11:00:00 -- -- -- -- -- -- -- -- --
2019-11-18 10:00:00 -- -- -- -- -- -- -- -- --
2019-11-18 09:00:00 -- -- -- -- -- -- -- -- --
2019-11-18 08:00:00 -- -- -- -- -- -- -- -- --
2019-11-18 07:00:00 -- -- -- -- -- -- -- -- --
2019-11-18 06:00:00 -- -- -- -- -- -- -- -- --
2019-11-18 05:00:00 -- -- -- -- -- -- -- -- --
2019-11-18 04:00:00 -- -- -- -- -- -- -- -- --
2019-11-18 03:00:00 -- -- -- -- -- -- -- -- --
2019-11-18 02:00:00 -- -- -- -- -- -- -- -- --
2019-11-18 01:00:00 -- -- -- -- -- -- -- -- --
2019-11-18 00:00:00 -- -- -- -- -- -- -- -- --
2019-11-17 23:00:00 -- -- -- -- -- -- -- -- --
2019-11-17 22:00:00 -- -- -- -- -- -- -- -- --
2019-11-17 21:00:00 -- -- -- -- -- -- -- -- --
2019-11-17 20:00:00 -- -- -- -- -- -- -- -- --
2019-11-17 19:00:00 -- -- -- -- -- -- -- -- --
2019-11-17 18:00:00 -- -- -- -- -- -- -- -- --
2019-11-17 17:00:00 -- -- -- -- -- -- -- -- --
2019-11-17 16:00:00 -- -- -- -- -- -- -- -- --
2019-11-17 15:00:00 -- -- -- -- -- -- -- -- --
2019-11-17 14:00:00 -- -- -- -- -- -- -- -- --
2019-11-17 13:00:00 -- -- -- -- -- -- -- -- --
2019-11-17 12:00:00 -- -- -- -- -- -- -- -- --
2019-11-17 11:00:00 -- -- -- -- -- -- -- -- --
2019-11-17 10:00:00 -- -- -- -- -- -- -- -- --
2019-11-17 09:00:00 -- -- -- -- -- -- -- -- --
2019-11-17 08:00:00 -- -- -- -- -- -- -- -- --
2019-11-17 07:00:00 -- -- -- -- -- -- -- -- --
2019-11-17 06:00:00 -- -- -- -- -- -- -- -- --
2019-11-17 05:00:00 -- -- -- -- -- -- -- -- --
2019-11-17 04:00:00 -- -- -- -- -- -- -- -- --
2019-11-17 03:00:00 -- -- -- -- -- -- -- -- --
2019-11-17 02:00:00 -- -- -- -- -- -- -- -- --
2019-11-17 01:00:00 -- -- -- -- -- -- -- -- --
2019-11-17 00:00:00 -- -- -- -- -- -- -- -- --
2019-11-16 23:00:00 -- -- -- -- -- -- -- -- --
2019-11-16 22:00:00 -- -- -- -- -- -- -- -- --
2019-11-16 21:00:00 -- -- -- -- -- -- -- -- --
2019-11-16 20:00:00 -- -- -- -- -- -- -- -- --
2019-11-16 19:00:00 -- -- -- -- -- -- -- -- --
2019-11-16 18:00:00 -- -- -- -- -- -- -- -- --
2019-11-16 17:00:00 -- -- -- -- -- -- -- -- --
2019-11-16 16:00:00 -- -- -- -- -- -- -- -- --
2019-11-16 15:00:00 -- -- -- -- -- -- -- -- --
2019-11-16 14:00:00 -- -- -- -- -- -- -- -- --
2019-11-16 13:00:00 -- -- -- -- -- -- -- -- --
2019-11-16 12:00:00 -- -- -- -- -- -- -- -- --
2019-11-16 11:00:00 -- -- -- -- -- -- -- -- --
2019-11-16 10:00:00 -- -- -- -- -- -- -- -- --
2019-11-16 09:00:00 -- -- -- -- -- -- -- -- --
2019-11-16 08:00:00 -- -- -- -- -- -- -- -- --
2019-11-16 07:00:00 -- -- -- -- -- -- -- -- --
2019-11-16 06:00:00 -- -- -- -- -- -- -- -- --
2019-11-16 05:00:00 -- -- -- -- -- -- -- -- --
2019-11-16 04:00:00 -- -- -- -- -- -- -- -- --
2019-11-16 03:00:00 -- -- -- -- -- -- -- -- --
2019-11-16 02:00:00 -- -- -- -- -- -- -- -- --
2019-11-16 01:00:00 -- -- -- -- -- -- -- -- --
2019-11-16 00:00:00 -- -- -- -- -- -- -- -- --
2019-11-15 23:00:00 -- -- -- -- -- -- -- -- --
2019-11-15 22:00:00 -- -- -- -- -- -- -- -- --
2019-11-15 21:00:00 -- -- -- -- -- -- -- -- --
2019-11-15 20:00:00 -- -- -- -- -- -- -- -- --
2019-11-15 19:00:00 -- -- -- -- -- -- -- -- --
2019-11-15 18:00:00 -- -- -- -- -- -- -- -- --
2019-11-15 17:00:00 -- -- -- -- -- -- -- -- --
2019-11-15 16:00:00 -- -- -- -- -- -- -- -- --
2019-11-15 15:00:00 -- -- -- -- -- -- -- -- --
2019-11-15 14:00:00 -- -- -- -- -- -- -- -- --
2019-11-15 13:00:00 -- -- -- -- -- -- -- -- --
2019-11-15 12:00:00 -- -- -- -- -- -- -- -- --
2019-11-15 11:00:00 -- -- -- -- -- -- -- -- --
2019-11-15 10:00:00 -- -- -- -- -- -- -- -- --
2019-11-15 09:00:00 -- -- -- -- -- -- -- -- --
2019-11-15 08:00:00 -- -- -- -- -- -- -- -- --
2019-11-15 07:00:00 -- -- -- -- -- -- -- -- --
2019-11-15 06:00:00 -- -- -- -- -- -- -- -- --
2019-11-15 05:00:00 -- -- -- -- -- -- -- -- --
2019-11-15 04:00:00 -- -- -- -- -- -- -- -- --
2019-11-15 03:00:00 -- -- -- -- -- -- -- -- --
2019-11-15 02:00:00 -- -- -- -- -- -- -- -- --
2019-11-15 01:00:00 -- -- -- -- -- -- -- -- --
2019-11-15 00:00:00 -- -- -- -- -- -- -- -- --
2019-11-14 23:00:00 -- -- -- -- -- -- -- -- --
2019-11-14 22:00:00 -- -- -- -- -- -- -- -- --
2019-11-14 21:00:00 -- -- -- -- -- -- -- -- --
2019-11-14 20:00:00 -- -- -- -- -- -- -- -- --
2019-11-14 19:00:00 -- -- -- -- -- -- -- -- --
2019-11-14 18:00:00 -- -- -- -- -- -- -- -- --
2019-11-14 17:00:00 -- -- -- -- -- -- -- -- --
2019-11-14 16:00:00 -- -- -- -- -- -- -- -- --
2019-11-14 15:00:00 -- -- -- -- -- -- -- -- --
2019-11-14 14:00:00 -- -- -- -- -- -- -- -- --
2019-11-14 13:00:00 -- -- -- -- -- -- -- -- --
2019-11-14 12:00:00 -- -- -- -- -- -- -- -- --
2019-11-14 11:00:00 -- -- -- -- -- -- -- -- --
2019-11-14 10:00:00 -- -- -- -- -- -- -- -- --
2019-11-14 09:00:00 -- -- -- -- -- -- -- -- --
2019-11-14 08:00:00 -- -- -- -- -- -- -- -- --
2019-11-14 07:00:00 -- -- -- -- -- -- -- -- --
2019-11-14 06:00:00 -- -- -- -- -- -- -- -- --
2019-11-14 05:00:00 -- -- -- -- -- -- -- -- --
2019-11-14 04:00:00 -- -- -- -- -- -- -- -- --
2019-11-14 03:00:00 -- -- -- -- -- -- -- -- --
2019-11-14 02:00:00 -- -- -- -- -- -- -- -- --
2019-11-14 01:00:00 -- -- -- -- -- -- -- -- --
2019-11-14 00:00:00 -- -- -- -- -- -- -- -- --
2019-11-13 23:00:00 -- -- -- -- -- -- -- -- --
2019-11-13 22:00:00 -- -- -- -- -- -- -- -- --
2019-11-13 21:00:00 -- -- -- -- -- -- -- -- --
2019-11-13 20:00:00 -- -- -- -- -- -- -- -- --
2019-11-13 19:00:00 -- -- -- -- -- -- -- -- --
2019-11-13 18:00:00 -- -- -- -- -- -- -- -- --
2019-11-13 17:00:00 -- -- -- -- -- -- -- -- --
2019-11-13 16:00:00 -- -- -- -- -- -- -- -- --
2019-11-13 15:00:00 -- -- -- -- -- -- -- -- --
2019-11-13 14:00:00 -- -- -- -- -- -- -- -- --
2019-11-13 13:00:00 -- -- -- -- -- -- -- -- --
2019-11-13 12:00:00 -- -- -- -- -- -- -- -- --
2019-11-13 11:00:00 -- -- -- -- -- -- -- -- --
2019-11-13 10:00:00 -- -- -- -- -- -- -- -- --
2019-11-13 09:00:00 -- -- -- -- -- -- -- -- --
2019-11-13 08:00:00 -- -- -- -- -- -- -- -- --
2019-11-13 07:00:00 -- -- -- -- -- -- -- -- --
2019-11-13 06:00:00 -- -- -- -- -- -- -- -- --
2019-11-13 05:00:00 -- -- -- -- -- -- -- -- --
2019-11-13 04:00:00 -- -- -- -- -- -- -- -- --
2019-11-13 03:00:00 -- -- -- -- -- -- -- -- --
2019-11-13 02:00:00 -- -- -- -- -- -- -- -- --
2019-11-13 01:00:00 -- -- -- -- -- -- -- -- --
2019-11-13 00:00:00 -- -- -- -- -- -- -- -- --
2019-11-12 23:00:00 -- -- -- -- -- -- -- -- --
2019-11-12 22:00:00 -- -- -- -- -- -- -- -- --
2019-11-12 21:00:00 -- -- -- -- -- -- -- -- --
2019-11-12 20:00:00 -- -- -- -- -- -- -- -- --
2019-11-12 19:00:00 -- -- -- -- -- -- -- -- --
2019-11-12 18:00:00 -- -- -- -- -- -- -- -- --
2019-11-12 17:00:00 -- -- -- -- -- -- -- -- --
2019-11-12 16:00:00 -- -- -- -- -- -- -- -- --
2019-11-12 15:00:00 -- -- -- -- -- -- -- -- --
2019-11-12 14:00:00 -- -- -- -- -- -- -- -- --
2019-11-12 13:00:00 -- -- -- -- -- -- -- -- --
2019-11-12 12:00:00 -- -- -- -- -- -- -- -- --
2019-11-12 11:00:00 -- -- -- -- -- -- -- -- --
2019-11-12 10:00:00 -- -- -- -- -- -- -- -- --
2019-11-12 09:00:00 -- -- -- -- -- -- -- -- --
2019-11-12 08:00:00 -- -- -- -- -- -- -- -- --
2019-11-12 07:00:00 -- -- -- -- -- -- -- -- --
2019-11-12 06:00:00 -- -- -- -- -- -- -- -- --
2019-11-12 05:00:00 -- -- -- -- -- -- -- -- --
2019-11-12 04:00:00 -- -- -- -- -- -- -- -- --
2019-11-12 03:00:00 -- -- -- -- -- -- -- -- --
2019-11-12 02:00:00 -- -- -- -- -- -- -- -- --
2019-11-12 01:00:00 -- -- -- -- -- -- -- -- --
2019-11-12 00:00:00 -- -- -- -- -- -- -- -- --
2019-11-11 23:00:00 -- -- -- -- -- -- -- -- --
2019-11-11 22:00:00 -- -- -- -- -- -- -- -- --
2019-11-11 21:00:00 -- -- -- -- -- -- -- -- --
2019-11-11 20:00:00 -- -- -- -- -- -- -- -- --
2019-11-11 19:00:00 -- -- -- -- -- -- -- -- --
2019-11-11 18:00:00 -- -- -- -- -- -- -- -- --
2019-11-11 17:00:00 -- -- -- -- -- -- -- -- --
2019-11-11 16:00:00 -- -- -- -- -- -- -- -- --
2019-11-11 15:00:00 -- -- -- -- -- -- -- -- --
2019-11-11 14:00:00 -- -- -- -- -- -- -- -- --
2019-11-11 13:00:00 -- -- -- -- -- -- -- -- --
2019-11-11 12:00:00 -- -- -- -- -- -- -- -- --
2019-11-11 11:00:00 -- -- -- -- -- -- -- -- --
2019-11-11 10:00:00 -- -- -- -- -- -- -- -- --
2019-11-11 09:00:00 -- -- -- -- -- -- -- -- --
2019-11-11 08:00:00 -- -- -- -- -- -- -- -- --
2019-11-11 07:00:00 -- -- -- -- -- -- -- -- --
2019-11-11 06:00:00 -- -- -- -- -- -- -- -- --
2019-11-11 05:00:00 -- -- -- -- -- -- -- -- --
2019-11-11 04:00:00 -- -- -- -- -- -- -- -- --
2019-11-11 03:00:00 -- -- -- -- -- -- -- -- --
2019-11-11 02:00:00 -- -- -- -- -- -- -- -- --
2019-11-11 01:00:00 -- -- -- -- -- -- -- -- --
2019-11-11 00:00:00 -- -- -- -- -- -- -- -- --
2019-11-10 23:00:00 -- -- -- -- -- -- -- -- --
2019-11-10 22:00:00 -- -- -- -- -- -- -- -- --
2019-11-10 21:00:00 -- -- -- -- -- -- -- -- --
2019-11-10 20:00:00 -- -- -- -- -- -- -- -- --
2019-11-10 19:00:00 -- -- -- -- -- -- -- -- --
2019-11-10 18:00:00 -- -- -- -- -- -- -- -- --
2019-11-10 17:00:00 -- -- -- -- -- -- -- -- --
2019-11-10 16:00:00 -- -- -- -- -- -- -- -- --
2019-11-10 15:00:00 -- -- -- -- -- -- -- -- --
2019-11-10 14:00:00 -- -- -- -- -- -- -- -- --
2019-11-10 13:00:00 -- -- -- -- -- -- -- -- --
2019-11-10 12:00:00 -- -- -- -- -- -- -- -- --
2019-11-10 11:00:00 -- -- -- -- -- -- -- -- --
2019-11-10 10:00:00 -- -- -- -- -- -- -- -- --
2019-11-10 09:00:00 -- -- -- -- -- -- -- -- --
2019-11-10 08:00:00 -- -- -- -- -- -- -- -- --
2019-11-10 07:00:00 -- -- -- -- -- -- -- -- --
2019-11-10 06:00:00 -- -- -- -- -- -- -- -- --
2019-11-10 05:00:00 -- -- -- -- -- -- -- -- --
2019-11-10 04:00:00 -- -- -- -- -- -- -- -- --
2019-11-10 03:00:00 -- -- -- -- -- -- -- -- --
2019-11-10 02:00:00 -- -- -- -- -- -- -- -- --
2019-11-10 01:00:00 -- -- -- -- -- -- -- -- --
2019-11-10 00:00:00 -- -- -- -- -- -- -- -- --